sensor_id;sensor_type;location;lat;lon;timestamp;P1;durP1;ratioP1;P2;durP2;ratioP2
3159;SDS011;1591;51.486;7.146;2022-08-04T00:01:10;10.73;;;3.37;;
3159;SDS011;1591;51.486;7.146;2022-08-04T00:03:48;11.67;;;3.50;;
3159;SDS011;1591;51.486;7.146;2022-08-04T00:06:27;11.27;;;4.20;;
3159;SDS011;1591;51.486;7.146;2022-08-04T00:09:09;8.23;;;4.07;;
3159;SDS011;1591;51.486;7.146;2022-08-04T00:11:48;14.90;;;4.87;;
3159;SDS011;1591;51.486;7.146;2022-08-04T00:14:17;12.57;;;4.70;;
3159;SDS011;1591;51.486;7.146;2022-08-04T00:16:47;11.50;;;4.33;;
3159;SDS011;1591;51.486;7.146;2022-08-04T00:19:20;17.67;;;4.17;;
3159;SDS011;1591;51.486;7.146;2022-08-04T00:21:55;16.10;;;3.97;;
3159;SDS011;1591;51.486;7.146;2022-08-04T00:24:28;8.60;;;4.03;;
3159;SDS011;1591;51.486;7.146;2022-08-04T00:26:56;10.03;;;3.27;;
3159;SDS011;1591;51.486;7.146;2022-08-04T00:29:24;10.97;;;3.23;;
3159;SDS011;1591;51.486;7.146;2022-08-04T00:31:55;6.67;;;3.00;;
3159;SDS011;1591;51.486;7.146;2022-08-04T00:34:23;9.43;;;3.23;;
3159;SDS011;1591;51.486;7.146;2022-08-04T00:36:52;10.40;;;3.03;;
3159;SDS011;1591;51.486;7.146;2022-08-04T00:39:21;8.73;;;3.13;;
3159;SDS011;1591;51.486;7.146;2022-08-04T00:41:51;11.97;;;3.10;;
3159;SDS011;1591;51.486;7.146;2022-08-04T00:45:12;5.20;;;2.70;;
3159;SDS011;1591;51.486;7.146;2022-08-04T00:48:12;8.20;;;2.87;;
3159;SDS011;1591;51.486;7.146;2022-08-04T00:50:51;9.63;;;3.30;;
3159;SDS011;1591;51.486;7.146;2022-08-04T00:53:37;6.03;;;2.70;;
3159;SDS011;1591;51.486;7.146;2022-08-04T00:59:38;6.00;;;2.53;;
3159;SDS011;1591;51.486;7.146;2022-08-04T01:02:24;7.23;;;2.53;;
3159;SDS011;1591;51.486;7.146;2022-08-04T01:05:04;8.83;;;2.40;;
3159;SDS011;1591;51.486;7.146;2022-08-04T01:10:57;12.13;;;2.83;;
3159;SDS011;1591;51.486;7.146;2022-08-04T01:13:41;6.60;;;2.80;;
3159;SDS011;1591;51.486;7.146;2022-08-04T01:16:42;5.80;;;2.73;;
3159;SDS011;1591;51.486;7.146;2022-08-04T01:19:19;14.10;;;3.10;;
3159;SDS011;1591;51.486;7.146;2022-08-04T01:22:24;9.93;;;3.40;;
3159;SDS011;1591;51.486;7.146;2022-08-04T01:25:39;10.07;;;3.03;;
3159;SDS011;1591;51.486;7.146;2022-08-04T01:28:35;10.93;;;3.10;;
3159;SDS011;1591;51.486;7.146;2022-08-04T01:31:41;9.83;;;3.50;;
3159;SDS011;1591;51.486;7.146;2022-08-04T01:34:29;12.60;;;4.00;;
3159;SDS011;1591;51.486;7.146;2022-08-04T01:37:03;14.67;;;4.00;;
3159;SDS011;1591;51.486;7.146;2022-08-04T01:39:37;10.57;;;4.30;;
3159;SDS011;1591;51.486;7.146;2022-08-04T01:42:16;9.87;;;3.20;;
3159;SDS011;1591;51.486;7.146;2022-08-04T01:44:48;7.83;;;4.07;;
3159;SDS011;1591;51.486;7.146;2022-08-04T01:47:16;5.80;;;3.27;;
3159;SDS011;1591;51.486;7.146;2022-08-04T01:49:48;9.10;;;3.70;;
3159;SDS011;1591;51.486;7.146;2022-08-04T01:52:17;8.87;;;3.43;;
3159;SDS011;1591;51.486;7.146;2022-08-04T01:54:45;12.80;;;3.30;;
3159;SDS011;1591;51.486;7.146;2022-08-04T01:57:14;8.00;;;3.10;;
3159;SDS011;1591;51.486;7.146;2022-08-04T01:59:44;23.03;;;3.90;;
3159;SDS011;1591;51.486;7.146;2022-08-04T02:02:16;13.17;;;3.60;;
3159;SDS011;1591;51.486;7.146;2022-08-04T02:04:47;8.90;;;3.67;;
3159;SDS011;1591;51.486;7.146;2022-08-04T02:07:25;7.87;;;3.60;;
3159;SDS011;1591;51.486;7.146;2022-08-04T02:10:06;13.47;;;3.30;;
3159;SDS011;1591;51.486;7.146;2022-08-04T02:12:47;13.40;;;3.57;;
3159;SDS011;1591;51.486;7.146;2022-08-04T02:15:35;9.73;;;3.43;;
3159;SDS011;1591;51.486;7.146;2022-08-04T02:18:15;4.90;;;3.13;;
3159;SDS011;1591;51.486;7.146;2022-08-04T02:20:48;9.57;;;2.80;;
3159;SDS011;1591;51.486;7.146;2022-08-04T02:23:25;15.10;;;3.60;;
3159;SDS011;1591;51.486;7.146;2022-08-04T02:25:57;9.10;;;3.13;;
3159;SDS011;1591;51.486;7.146;2022-08-04T02:28:29;6.80;;;3.23;;
3159;SDS011;1591;51.486;7.146;2022-08-04T02:31:05;7.07;;;2.80;;
3159;SDS011;1591;51.486;7.146;2022-08-04T02:33:42;6.60;;;2.87;;
3159;SDS011;1591;51.486;7.146;2022-08-04T02:36:12;8.47;;;2.73;;
3159;SDS011;1591;51.486;7.146;2022-08-04T02:38:52;7.37;;;2.80;;
3159;SDS011;1591;51.486;7.146;2022-08-04T02:41:22;6.53;;;3.03;;
3159;SDS011;1591;51.486;7.146;2022-08-04T02:43:54;7.00;;;3.10;;
3159;SDS011;1591;51.486;7.146;2022-08-04T02:46:26;11.60;;;2.73;;
3159;SDS011;1591;51.486;7.146;2022-08-04T02:48:55;13.03;;;2.83;;
3159;SDS011;1591;51.486;7.146;2022-08-04T02:51:23;5.80;;;2.57;;
3159;SDS011;1591;51.486;7.146;2022-08-04T02:53:56;9.97;;;3.03;;
3159;SDS011;1591;51.486;7.146;2022-08-04T02:56:25;7.73;;;3.57;;
3159;SDS011;1591;51.486;7.146;2022-08-04T02:58:57;5.30;;;2.70;;
3159;SDS011;1591;51.486;7.146;2022-08-04T03:01:27;5.17;;;2.83;;
3159;SDS011;1591;51.486;7.146;2022-08-04T03:03:57;10.23;;;3.07;;
3159;SDS011;1591;51.486;7.146;2022-08-04T03:06:49;7.00;;;2.53;;
3159;SDS011;1591;51.486;7.146;2022-08-04T03:13:07;10.13;;;2.87;;
3159;SDS011;1591;51.486;7.146;2022-08-04T03:16:16;6.67;;;3.00;;
3159;SDS011;1591;51.486;7.146;2022-08-04T03:19:41;6.77;;;2.90;;
3159;SDS011;1591;51.486;7.146;2022-08-04T03:23:09;10.93;;;3.47;;
3159;SDS011;1591;51.486;7.146;2022-08-04T03:26:06;9.03;;;3.57;;
3159;SDS011;1591;51.486;7.146;2022-08-04T03:39:27;6.20;;;2.80;;
3159;SDS011;1591;51.486;7.146;2022-08-04T03:52:41;5.03;;;2.67;;
3159;SDS011;1591;51.486;7.146;2022-08-04T03:55:41;5.43;;;2.77;;
3159;SDS011;1591;51.486;7.146;2022-08-04T03:58:38;8.90;;;2.87;;
3159;SDS011;1591;51.486;7.146;2022-08-04T04:01:24;6.30;;;3.10;;
3159;SDS011;1591;51.486;7.146;2022-08-04T04:04:29;7.77;;;3.43;;
3159;SDS011;1591;51.486;7.146;2022-08-04T04:10:49;5.90;;;3.20;;
3159;SDS011;1591;51.486;7.146;2022-08-04T04:13:49;9.00;;;3.50;;
3159;SDS011;1591;51.486;7.146;2022-08-04T04:19:57;7.37;;;3.40;;
3159;SDS011;1591;51.486;7.146;2022-08-04T04:22:59;9.70;;;3.30;;
3159;SDS011;1591;51.486;7.146;2022-08-04T04:25:54;17.50;;;3.80;;
3159;SDS011;1591;51.486;7.146;2022-08-04T04:28:48;11.83;;;3.50;;
3159;SDS011;1591;51.486;7.146;2022-08-04T04:31:41;7.27;;;3.20;;
3159;SDS011;1591;51.486;7.146;2022-08-04T04:34:25;12.93;;;4.13;;
3159;SDS011;1591;51.486;7.146;2022-08-04T04:37:10;8.80;;;3.53;;
3159;SDS011;1591;51.486;7.146;2022-08-04T04:39:54;11.83;;;3.80;;
3159;SDS011;1591;51.486;7.146;2022-08-04T04:42:53;8.23;;;3.70;;
3159;SDS011;1591;51.486;7.146;2022-08-04T04:45:40;10.40;;;3.57;;
3159;SDS011;1591;51.486;7.146;2022-08-04T04:48:23;18.83;;;3.90;;
3159;SDS011;1591;51.486;7.146;2022-08-04T04:51:06;10.87;;;3.50;;
3159;SDS011;1591;51.486;7.146;2022-08-04T04:53:46;8.50;;;3.70;;
3159;SDS011;1591;51.486;7.146;2022-08-04T04:56:24;6.70;;;3.50;;
3159;SDS011;1591;51.486;7.146;2022-08-04T04:58:59;7.13;;;3.50;;
3159;SDS011;1591;51.486;7.146;2022-08-04T05:11:20;9.07;;;3.80;;
3159;SDS011;1591;51.486;7.146;2022-08-04T05:14:17;9.90;;;4.30;;
3159;SDS011;1591;51.486;7.146;2022-08-04T05:16:53;13.07;;;4.23;;
3159;SDS011;1591;51.486;7.146;2022-08-04T05:19:33;18.53;;;4.50;;
3159;SDS011;1591;51.486;7.146;2022-08-04T05:22:17;7.33;;;3.80;;
3159;SDS011;1591;51.486;7.146;2022-08-04T05:24:54;9.87;;;4.10;;
3159;SDS011;1591;51.486;7.146;2022-08-04T05:27:34;12.73;;;4.10;;
3159;SDS011;1591;51.486;7.146;2022-08-04T05:30:07;11.87;;;4.30;;
3159;SDS011;1591;51.486;7.146;2022-08-04T05:32:37;10.23;;;4.50;;
3159;SDS011;1591;51.486;7.146;2022-08-04T05:35:14;9.60;;;4.10;;
3159;SDS011;1591;51.486;7.146;2022-08-04T05:37:51;13.43;;;3.80;;
3159;SDS011;1591;51.486;7.146;2022-08-04T05:40:24;6.70;;;4.00;;
3159;SDS011;1591;51.486;7.146;2022-08-04T05:42:54;7.63;;;4.20;;
3159;SDS011;1591;51.486;7.146;2022-08-04T05:45:22;10.20;;;4.30;;
3159;SDS011;1591;51.486;7.146;2022-08-04T05:47:52;6.77;;;3.83;;
3159;SDS011;1591;51.486;7.146;2022-08-04T05:50:22;6.33;;;3.90;;
3159;SDS011;1591;51.486;7.146;2022-08-04T05:52:50;10.93;;;3.83;;
3159;SDS011;1591;51.486;7.146;2022-08-04T05:55:19;14.80;;;4.00;;
3159;SDS011;1591;51.486;7.146;2022-08-04T05:57:47;8.07;;;3.87;;
3159;SDS011;1591;51.486;7.146;2022-08-04T06:00:17;14.10;;;3.97;;
3159;SDS011;1591;51.486;7.146;2022-08-04T06:02:45;11.47;;;3.70;;
3159;SDS011;1591;51.486;7.146;2022-08-04T06:05:14;12.07;;;4.10;;
3159;SDS011;1591;51.486;7.146;2022-08-04T06:07:43;20.20;;;4.50;;
3159;SDS011;1591;51.486;7.146;2022-08-04T06:10:10;8.00;;;4.20;;
3159;SDS011;1591;51.486;7.146;2022-08-04T06:12:39;10.83;;;4.13;;
3159;SDS011;1591;51.486;7.146;2022-08-04T06:15:13;13.20;;;4.43;;
3159;SDS011;1591;51.486;7.146;2022-08-04T06:17:47;7.87;;;4.17;;
3159;SDS011;1591;51.486;7.146;2022-08-04T06:20:19;12.30;;;4.33;;
3159;SDS011;1591;51.486;7.146;2022-08-04T06:22:51;12.73;;;4.57;;
3159;SDS011;1591;51.486;7.146;2022-08-04T06:25:23;15.43;;;5.17;;
3159;SDS011;1591;51.486;7.146;2022-08-04T06:27:54;10.53;;;3.90;;
3159;SDS011;1591;51.486;7.146;2022-08-04T06:30:23;5.97;;;3.40;;
3159;SDS011;1591;51.486;7.146;2022-08-04T06:32:53;6.90;;;3.30;;
3159;SDS011;1591;51.486;7.146;2022-08-04T06:35:22;7.53;;;3.40;;
3159;SDS011;1591;51.486;7.146;2022-08-04T06:37:51;4.60;;;3.50;;
3159;SDS011;1591;51.486;7.146;2022-08-04T06:40:22;5.57;;;3.20;;
3159;SDS011;1591;51.486;7.146;2022-08-04T06:42:50;16.70;;;4.30;;
3159;SDS011;1591;51.486;7.146;2022-08-04T06:45:18;12.63;;;3.97;;
3159;SDS011;1591;51.486;7.146;2022-08-04T06:47:48;7.23;;;3.80;;
3159;SDS011;1591;51.486;7.146;2022-08-04T06:50:15;9.03;;;3.87;;
3159;SDS011;1591;51.486;7.146;2022-08-04T06:52:43;14.87;;;3.20;;
3159;SDS011;1591;51.486;7.146;2022-08-04T06:55:11;6.20;;;3.00;;
3159;SDS011;1591;51.486;7.146;2022-08-04T06:57:41;7.20;;;2.97;;
3159;SDS011;1591;51.486;7.146;2022-08-04T07:00:12;5.57;;;2.73;;
3159;SDS011;1591;51.486;7.146;2022-08-04T07:02:43;9.83;;;3.23;;
3159;SDS011;1591;51.486;7.146;2022-08-04T07:05:15;8.00;;;2.83;;
3159;SDS011;1591;51.486;7.146;2022-08-04T07:07:43;4.90;;;2.80;;
3159;SDS011;1591;51.486;7.146;2022-08-04T07:10:12;5.33;;;2.60;;
3159;SDS011;1591;51.486;7.146;2022-08-04T07:12:42;9.50;;;2.53;;
3159;SDS011;1591;51.486;7.146;2022-08-04T07:15:11;2.77;;;2.57;;
3159;SDS011;1591;51.486;7.146;2022-08-04T07:17:41;3.20;;;2.90;;
3159;SDS011;1591;51.486;7.146;2022-08-04T07:20:10;4.90;;;2.43;;
3159;SDS011;1591;51.486;7.146;2022-08-04T07:22:42;4.37;;;2.60;;
3159;SDS011;1591;51.486;7.146;2022-08-04T07:25:14;6.83;;;2.70;;
3159;SDS011;1591;51.486;7.146;2022-08-04T07:27:41;4.70;;;2.90;;
3159;SDS011;1591;51.486;7.146;2022-08-04T07:30:09;8.67;;;2.77;;
3159;SDS011;1591;51.486;7.146;2022-08-04T07:32:37;5.87;;;2.80;;
3159;SDS011;1591;51.486;7.146;2022-08-04T07:35:09;4.90;;;2.67;;
3159;SDS011;1591;51.486;7.146;2022-08-04T07:37:37;5.83;;;2.67;;
3159;SDS011;1591;51.486;7.146;2022-08-04T07:40:06;6.00;;;2.80;;
3159;SDS011;1591;51.486;7.146;2022-08-04T07:42:35;5.33;;;2.53;;
3159;SDS011;1591;51.486;7.146;2022-08-04T07:45:04;4.33;;;3.57;;
3159;SDS011;1591;51.486;7.146;2022-08-04T07:47:33;5.10;;;2.80;;
3159;SDS011;1591;51.486;7.146;2022-08-04T07:50:00;5.03;;;2.93;;
3159;SDS011;1591;51.486;7.146;2022-08-04T07:52:28;3.00;;;2.70;;
3159;SDS011;1591;51.486;7.146;2022-08-04T07:54:55;9.70;;;2.63;;
3159;SDS011;1591;51.486;7.146;2022-08-04T07:57:24;4.07;;;2.40;;
3159;SDS011;1591;51.486;7.146;2022-08-04T07:59:53;7.20;;;2.80;;
3159;SDS011;1591;51.486;7.146;2022-08-04T08:02:22;2.97;;;2.53;;
3159;SDS011;1591;51.486;7.146;2022-08-04T08:04:50;5.30;;;2.70;;
3159;SDS011;1591;51.486;7.146;2022-08-04T08:07:18;4.93;;;2.60;;
3159;SDS011;1591;51.486;7.146;2022-08-04T08:09:45;5.30;;;2.87;;
3159;SDS011;1591;51.486;7.146;2022-08-04T08:12:14;3.90;;;3.10;;
3159;SDS011;1591;51.486;7.146;2022-08-04T08:14:43;6.80;;;2.80;;
3159;SDS011;1591;51.486;7.146;2022-08-04T08:17:15;8.17;;;2.70;;
3159;SDS011;1591;51.486;7.146;2022-08-04T08:19:43;3.13;;;2.73;;
3159;SDS011;1591;51.486;7.146;2022-08-04T08:22:12;2.40;;;2.17;;
3159;SDS011;1591;51.486;7.146;2022-08-04T08:24:41;6.83;;;2.87;;
3159;SDS011;1591;51.486;7.146;2022-08-04T08:27:08;5.03;;;2.37;;
3159;SDS011;1591;51.486;7.146;2022-08-04T08:29:36;5.30;;;2.40;;
3159;SDS011;1591;51.486;7.146;2022-08-04T08:32:06;4.77;;;2.30;;
3159;SDS011;1591;51.486;7.146;2022-08-04T08:34:39;6.00;;;2.13;;
3159;SDS011;1591;51.486;7.146;2022-08-04T08:37:11;3.97;;;2.20;;
3159;SDS011;1591;51.486;7.146;2022-08-04T08:39:44;5.10;;;2.10;;
3159;SDS011;1591;51.486;7.146;2022-08-04T08:42:28;5.37;;;2.30;;
3159;SDS011;1591;51.486;7.146;2022-08-04T08:45:31;6.60;;;2.50;;
3159;SDS011;1591;51.486;7.146;2022-08-04T08:48:38;5.30;;;2.20;;
3159;SDS011;1591;51.486;7.146;2022-08-04T08:51:34;2.30;;;2.10;;
3159;SDS011;1591;51.486;7.146;2022-08-04T08:57:36;3.47;;;2.77;;
3159;SDS011;1591;51.486;7.146;2022-08-04T09:00:22;6.67;;;2.40;;
3159;SDS011;1591;51.486;7.146;2022-08-04T09:03:11;3.07;;;1.93;;
3159;SDS011;1591;51.486;7.146;2022-08-04T09:06:11;5.13;;;2.50;;
3159;SDS011;1591;51.486;7.146;2022-08-04T09:09:18;3.20;;;2.20;;
3159;SDS011;1591;51.486;7.146;2022-08-04T09:12:33;2.00;;;1.90;;
3159;SDS011;1591;51.486;7.146;2022-08-04T09:15:10;3.63;;;2.10;;
3159;SDS011;1591;51.486;7.146;2022-08-04T09:17:46;3.03;;;1.80;;
3159;SDS011;1591;51.486;7.146;2022-08-04T09:20:24;3.30;;;2.10;;
3159;SDS011;1591;51.486;7.146;2022-08-04T09:25:56;4.90;;;2.00;;
3159;SDS011;1591;51.486;7.146;2022-08-04T09:28:42;4.73;;;2.20;;
3159;SDS011;1591;51.486;7.146;2022-08-04T09:31:21;3.70;;;2.40;;
3159;SDS011;1591;51.486;7.146;2022-08-04T09:34:08;2.50;;;1.90;;
3159;SDS011;1591;51.486;7.146;2022-08-04T09:36:46;3.80;;;2.00;;
3159;SDS011;1591;51.486;7.146;2022-08-04T09:39:28;2.63;;;1.70;;
3159;SDS011;1591;51.486;7.146;2022-08-04T09:42:09;6.07;;;2.70;;
3159;SDS011;1591;51.486;7.146;2022-08-04T09:44:49;3.77;;;1.90;;
3159;SDS011;1591;51.486;7.146;2022-08-04T09:47:31;7.73;;;2.07;;
3159;SDS011;1591;51.486;7.146;2022-08-04T09:50:23;2.23;;;2.10;;
3159;SDS011;1591;51.486;7.146;2022-08-04T09:53:02;3.03;;;2.70;;
3159;SDS011;1591;51.486;7.146;2022-08-04T09:55:49;3.03;;;2.07;;
3159;SDS011;1591;51.486;7.146;2022-08-04T09:58:35;6.97;;;2.10;;
3159;SDS011;1591;51.486;7.146;2022-08-04T10:01:15;2.10;;;2.00;;
3159;SDS011;1591;51.486;7.146;2022-08-04T10:03:48;2.30;;;2.00;;
3159;SDS011;1591;51.486;7.146;2022-08-04T10:06:33;3.13;;;1.90;;
3159;SDS011;1591;51.486;7.146;2022-08-04T10:09:29;5.37;;;2.20;;
3159;SDS011;1591;51.486;7.146;2022-08-04T10:12:24;3.93;;;2.00;;
3159;SDS011;1591;51.486;7.146;2022-08-04T10:15:04;2.20;;;2.00;;
3159;SDS011;1591;51.486;7.146;2022-08-04T10:20:45;3.70;;;2.10;;
3159;SDS011;1591;51.486;7.146;2022-08-04T10:23:32;5.80;;;2.20;;
3159;SDS011;1591;51.486;7.146;2022-08-04T10:26:19;3.73;;;2.10;;
3159;SDS011;1591;51.486;7.146;2022-08-04T10:29:08;4.10;;;1.93;;
3159;SDS011;1591;51.486;7.146;2022-08-04T10:31:58;4.60;;;2.10;;
3159;SDS011;1591;51.486;7.146;2022-08-04T10:34:42;7.67;;;2.30;;
3159;SDS011;1591;51.486;7.146;2022-08-04T10:37:27;13.13;;;2.40;;
3159;SDS011;1591;51.486;7.146;2022-08-04T10:40:09;4.83;;;2.10;;
3159;SDS011;1591;51.486;7.146;2022-08-04T10:43:02;5.00;;;2.30;;
3159;SDS011;1591;51.486;7.146;2022-08-04T10:45:43;6.87;;;2.70;;
3159;SDS011;1591;51.486;7.146;2022-08-04T10:48:19;4.07;;;2.17;;
3159;SDS011;1591;51.486;7.146;2022-08-04T10:50:58;5.43;;;2.37;;
3159;SDS011;1591;51.486;7.146;2022-08-04T10:53:36;12.90;;;2.60;;
3159;SDS011;1591;51.486;7.146;2022-08-04T10:56:10;4.30;;;2.60;;
3159;SDS011;1591;51.486;7.146;2022-08-04T10:58:45;6.27;;;2.30;;
3159;SDS011;1591;51.486;7.146;2022-08-04T11:01:26;19.47;;;5.03;;
3159;SDS011;1591;51.486;7.146;2022-08-04T11:03:59;8.80;;;2.57;;
3159;SDS011;1591;51.486;7.146;2022-08-04T11:06:35;10.80;;;3.00;;
3159;SDS011;1591;51.486;7.146;2022-08-04T11:09:03;6.23;;;2.83;;
3159;SDS011;1591;51.486;7.146;2022-08-04T11:11:37;5.07;;;2.70;;
3159;SDS011;1591;51.486;7.146;2022-08-04T11:14:16;5.60;;;3.73;;
3159;SDS011;1591;51.486;7.146;2022-08-04T11:19:45;9.47;;;2.63;;
3159;SDS011;1591;51.486;7.146;2022-08-04T11:22:41;10.83;;;2.30;;
3159;SDS011;1591;51.486;7.146;2022-08-04T11:25:19;5.00;;;2.30;;
3159;SDS011;1591;51.486;7.146;2022-08-04T11:27:55;4.10;;;2.53;;
3159;SDS011;1591;51.486;7.146;2022-08-04T11:30:40;6.70;;;2.40;;
3159;SDS011;1591;51.486;7.146;2022-08-04T11:33:22;6.67;;;2.03;;
3159;SDS011;1591;51.486;7.146;2022-08-04T11:36:06;7.87;;;2.20;;
3159;SDS011;1591;51.486;7.146;2022-08-04T11:38:46;5.40;;;2.33;;
3159;SDS011;1591;51.486;7.146;2022-08-04T11:41:25;6.73;;;2.27;;
3159;SDS011;1591;51.486;7.146;2022-08-04T11:44:04;2.63;;;2.03;;
3159;SDS011;1591;51.486;7.146;2022-08-04T11:46:47;6.60;;;2.13;;
3159;SDS011;1591;51.486;7.146;2022-08-04T11:49:25;7.33;;;2.70;;
3159;SDS011;1591;51.486;7.146;2022-08-04T11:52:07;8.30;;;2.40;;
3159;SDS011;1591;51.486;7.146;2022-08-04T11:54:39;13.20;;;2.80;;
3159;SDS011;1591;51.486;7.146;2022-08-04T11:57:18;4.10;;;2.60;;
3159;SDS011;1591;51.486;7.146;2022-08-04T11:59:49;5.30;;;2.10;;
3159;SDS011;1591;51.486;7.146;2022-08-04T12:02:36;5.47;;;2.37;;
3159;SDS011;1591;51.486;7.146;2022-08-04T12:05:54;7.57;;;2.83;;
3159;SDS011;1591;51.486;7.146;2022-08-04T12:11:44;5.10;;;1.90;;
3159;SDS011;1591;51.486;7.146;2022-08-04T12:14:25;5.70;;;1.83;;
3159;SDS011;1591;51.486;7.146;2022-08-04T12:17:04;6.53;;;2.40;;
3159;SDS011;1591;51.486;7.146;2022-08-04T12:19:36;3.67;;;2.60;;
3159;SDS011;1591;51.486;7.146;2022-08-04T12:22:22;4.33;;;2.33;;
3159;SDS011;1591;51.486;7.146;2022-08-04T12:24:53;4.70;;;2.50;;
3159;SDS011;1591;51.486;7.146;2022-08-04T12:27:28;4.70;;;2.60;;
3159;SDS011;1591;51.486;7.146;2022-08-04T12:30:02;6.90;;;2.60;;
3159;SDS011;1591;51.486;7.146;2022-08-04T12:32:35;5.00;;;2.70;;
3159;SDS011;1591;51.486;7.146;2022-08-04T12:35:11;6.87;;;2.70;;
3159;SDS011;1591;51.486;7.146;2022-08-04T12:37:49;10.40;;;2.50;;
3159;SDS011;1591;51.486;7.146;2022-08-04T12:40:29;6.63;;;2.50;;
3159;SDS011;1591;51.486;7.146;2022-08-04T12:43:10;9.83;;;2.30;;
3159;SDS011;1591;51.486;7.146;2022-08-04T12:45:45;2.93;;;2.47;;
3159;SDS011;1591;51.486;7.146;2022-08-04T12:48:20;12.80;;;2.40;;
3159;SDS011;1591;51.486;7.146;2022-08-04T12:50:55;5.30;;;2.50;;
3159;SDS011;1591;51.486;7.146;2022-08-04T12:53:36;12.37;;;2.10;;
3159;SDS011;1591;51.486;7.146;2022-08-04T12:56:13;5.70;;;2.10;;
3159;SDS011;1591;51.486;7.146;2022-08-04T12:58:46;9.00;;;2.63;;
3159;SDS011;1591;51.486;7.146;2022-08-04T13:01:18;15.33;;;2.77;;
3159;SDS011;1591;51.486;7.146;2022-08-04T13:03:48;11.60;;;2.80;;
3159;SDS011;1591;51.486;7.146;2022-08-04T13:06:23;13.80;;;3.33;;
3159;SDS011;1591;51.486;7.146;2022-08-04T13:08:54;12.33;;;2.80;;
3159;SDS011;1591;51.486;7.146;2022-08-04T13:11:27;9.17;;;2.60;;
3159;SDS011;1591;51.486;7.146;2022-08-04T13:13:59;13.17;;;3.40;;
3159;SDS011;1591;51.486;7.146;2022-08-04T13:16:30;15.63;;;2.93;;
3159;SDS011;1591;51.486;7.146;2022-08-04T13:18:58;11.97;;;2.77;;
3159;SDS011;1591;51.486;7.146;2022-08-04T13:21:28;8.90;;;2.97;;
3159;SDS011;1591;51.486;7.146;2022-08-04T13:24:00;5.80;;;2.83;;
3159;SDS011;1591;51.486;7.146;2022-08-04T13:26:35;8.50;;;2.80;;
3159;SDS011;1591;51.486;7.146;2022-08-04T13:29:05;13.27;;;3.10;;
3159;SDS011;1591;51.486;7.146;2022-08-04T13:31:34;9.67;;;3.00;;
3159;SDS011;1591;51.486;7.146;2022-08-04T13:34:12;8.00;;;3.10;;
3159;SDS011;1591;51.486;7.146;2022-08-04T13:36:45;5.13;;;2.67;;
3159;SDS011;1591;51.486;7.146;2022-08-04T13:39:17;9.60;;;2.70;;
3159;SDS011;1591;51.486;7.146;2022-08-04T13:41:55;5.93;;;2.90;;
3159;SDS011;1591;51.486;7.146;2022-08-04T13:44:29;4.67;;;3.00;;
3159;SDS011;1591;51.486;7.146;2022-08-04T13:47:00;8.30;;;2.80;;
3159;SDS011;1591;51.486;7.146;2022-08-04T13:49:33;12.43;;;3.27;;
3159;SDS011;1591;51.486;7.146;2022-08-04T13:52:04;8.33;;;2.80;;
3159;SDS011;1591;51.486;7.146;2022-08-04T13:54:37;9.93;;;3.23;;
3159;SDS011;1591;51.486;7.146;2022-08-04T13:57:08;8.27;;;3.07;;
3159;SDS011;1591;51.486;7.146;2022-08-04T13:59:39;7.93;;;2.73;;
3159;SDS011;1591;51.486;7.146;2022-08-04T14:02:15;8.30;;;3.07;;
3159;SDS011;1591;51.486;7.146;2022-08-04T14:04:57;9.33;;;2.50;;
3159;SDS011;1591;51.486;7.146;2022-08-04T14:07:33;4.60;;;2.80;;
3159;SDS011;1591;51.486;7.146;2022-08-04T14:10:12;8.53;;;2.77;;
3159;SDS011;1591;51.486;7.146;2022-08-04T14:12:43;3.03;;;2.10;;
3159;SDS011;1591;51.486;7.146;2022-08-04T14:15:34;4.83;;;2.17;;
3159;SDS011;1591;51.486;7.146;2022-08-04T14:18:15;5.53;;;1.97;;
3159;SDS011;1591;51.486;7.146;2022-08-04T14:20:58;5.47;;;2.53;;
3159;SDS011;1591;51.486;7.146;2022-08-04T14:23:28;6.77;;;2.77;;
3159;SDS011;1591;51.486;7.146;2022-08-04T14:26:13;7.37;;;2.93;;
3159;SDS011;1591;51.486;7.146;2022-08-04T14:28:43;13.50;;;2.57;;
3159;SDS011;1591;51.486;7.146;2022-08-04T14:31:12;10.47;;;2.40;;
3159;SDS011;1591;51.486;7.146;2022-08-04T14:33:42;5.00;;;2.23;;
3159;SDS011;1591;51.486;7.146;2022-08-04T14:36:11;6.53;;;2.67;;
3159;SDS011;1591;51.486;7.146;2022-08-04T14:38:42;7.77;;;2.53;;
3159;SDS011;1591;51.486;7.146;2022-08-04T14:41:21;4.70;;;2.50;;
3159;SDS011;1591;51.486;7.146;2022-08-04T14:43:52;4.10;;;2.60;;
3159;SDS011;1591;51.486;7.146;2022-08-04T14:46:24;6.33;;;2.60;;
3159;SDS011;1591;51.486;7.146;2022-08-04T14:49:05;5.10;;;2.50;;
3159;SDS011;1591;51.486;7.146;2022-08-04T14:51:36;7.00;;;2.43;;
3159;SDS011;1591;51.486;7.146;2022-08-04T14:54:07;11.50;;;3.00;;
3159;SDS011;1591;51.486;7.146;2022-08-04T14:56:39;11.20;;;2.27;;
3159;SDS011;1591;51.486;7.146;2022-08-04T14:59:08;13.30;;;2.80;;
3159;SDS011;1591;51.486;7.146;2022-08-04T15:01:36;15.20;;;3.53;;
3159;SDS011;1591;51.486;7.146;2022-08-04T15:04:07;4.40;;;3.13;;
3159;SDS011;1591;51.486;7.146;2022-08-04T15:06:35;10.17;;;2.97;;
3159;SDS011;1591;51.486;7.146;2022-08-04T15:09:03;4.97;;;2.30;;
3159;SDS011;1591;51.486;7.146;2022-08-04T15:11:33;16.00;;;3.27;;
3159;SDS011;1591;51.486;7.146;2022-08-04T15:14:03;7.23;;;2.30;;
3159;SDS011;1591;51.486;7.146;2022-08-04T15:16:32;6.93;;;2.70;;
3159;SDS011;1591;51.486;7.146;2022-08-04T15:19:02;3.60;;;2.70;;
3159;SDS011;1591;51.486;7.146;2022-08-04T15:21:29;2.83;;;2.47;;
3159;SDS011;1591;51.486;7.146;2022-08-04T15:23:58;6.53;;;2.60;;
3159;SDS011;1591;51.486;7.146;2022-08-04T15:26:28;8.40;;;2.60;;
3159;SDS011;1591;51.486;7.146;2022-08-04T15:29:02;7.43;;;2.40;;
3159;SDS011;1591;51.486;7.146;2022-08-04T15:31:40;6.97;;;2.40;;
3159;SDS011;1591;51.486;7.146;2022-08-04T15:34:09;10.40;;;2.60;;
3159;SDS011;1591;51.486;7.146;2022-08-04T15:36:40;5.30;;;2.73;;
3159;SDS011;1591;51.486;7.146;2022-08-04T15:39:21;4.83;;;3.10;;
3159;SDS011;1591;51.486;7.146;2022-08-04T15:42:05;3.47;;;3.00;;
3159;SDS011;1591;51.486;7.146;2022-08-04T15:47:54;4.93;;;2.70;;
3159;SDS011;1591;51.486;7.146;2022-08-04T15:51:04;7.23;;;2.70;;
3159;SDS011;1591;51.486;7.146;2022-08-04T15:56:47;4.20;;;2.53;;
3159;SDS011;1591;51.486;7.146;2022-08-04T15:59:21;10.13;;;2.93;;
3159;SDS011;1591;51.486;7.146;2022-08-04T16:08:14;3.87;;;2.73;;
3159;SDS011;1591;51.486;7.146;2022-08-04T16:10:46;2.73;;;2.53;;
3159;SDS011;1591;51.486;7.146;2022-08-04T16:13:15;3.23;;;2.43;;
3159;SDS011;1591;51.486;7.146;2022-08-04T16:15:46;3.83;;;2.60;;
3159;SDS011;1591;51.486;7.146;2022-08-04T16:18:36;4.10;;;2.50;;
3159;SDS011;1591;51.486;7.146;2022-08-04T16:21:16;5.40;;;2.57;;
3159;SDS011;1591;51.486;7.146;2022-08-04T16:23:55;5.60;;;2.30;;
3159;SDS011;1591;51.486;7.146;2022-08-04T16:26:43;5.10;;;2.60;;
3159;SDS011;1591;51.486;7.146;2022-08-04T16:29:33;7.67;;;2.97;;
3159;SDS011;1591;51.486;7.146;2022-08-04T16:32:08;8.53;;;3.00;;
3159;SDS011;1591;51.486;7.146;2022-08-04T16:34:40;5.63;;;3.30;;
3159;SDS011;1591;51.486;7.146;2022-08-04T16:37:12;3.53;;;2.30;;
3159;SDS011;1591;51.486;7.146;2022-08-04T16:39:43;3.93;;;2.47;;
3159;SDS011;1591;51.486;7.146;2022-08-04T16:42:26;5.60;;;2.80;;
3159;SDS011;1591;51.486;7.146;2022-08-04T16:44:57;4.47;;;2.50;;
3159;SDS011;1591;51.486;7.146;2022-08-04T16:50:33;6.73;;;2.80;;
3159;SDS011;1591;51.486;7.146;2022-08-04T16:53:13;11.00;;;2.97;;
3159;SDS011;1591;51.486;7.146;2022-08-04T16:55:44;6.43;;;2.60;;
3159;SDS011;1591;51.486;7.146;2022-08-04T16:58:13;2.70;;;2.50;;
3159;SDS011;1591;51.486;7.146;2022-08-04T17:00:43;4.30;;;2.77;;
3159;SDS011;1591;51.486;7.146;2022-08-04T17:03:11;4.60;;;2.47;;
3159;SDS011;1591;51.486;7.146;2022-08-04T17:05:40;6.10;;;2.77;;
3159;SDS011;1591;51.486;7.146;2022-08-04T17:08:09;12.67;;;3.77;;
3159;SDS011;1591;51.486;7.146;2022-08-04T17:10:44;4.00;;;3.10;;
3159;SDS011;1591;51.486;7.146;2022-08-04T17:13:19;4.87;;;2.77;;
3159;SDS011;1591;51.486;7.146;2022-08-04T17:15:51;6.80;;;2.70;;
3159;SDS011;1591;51.486;7.146;2022-08-04T17:18:22;5.63;;;3.10;;
3159;SDS011;1591;51.486;7.146;2022-08-04T17:20:53;4.70;;;3.07;;
3159;SDS011;1591;51.486;7.146;2022-08-04T17:23:24;4.30;;;2.50;;
3159;SDS011;1591;51.486;7.146;2022-08-04T17:26:00;7.13;;;3.03;;
3159;SDS011;1591;51.486;7.146;2022-08-04T17:28:36;5.23;;;3.00;;
3159;SDS011;1591;51.486;7.146;2022-08-04T17:31:08;7.10;;;2.60;;
3159;SDS011;1591;51.486;7.146;2022-08-04T17:33:39;8.93;;;3.03;;